createdAt,value
2019-01-05T00:00:52.961Z,957.58
2019-01-05T00:03:19.245Z,957.58
2019-01-05T00:05:45.581Z,957.66
2019-01-05T00:08:11.881Z,957.66
2019-01-05T00:10:38.174Z,957.68
2019-01-05T00:13:04.458Z,957.67
2019-01-05T00:15:30.749Z,957.66
2019-01-05T00:17:57.078Z,957.77
2019-01-05T00:20:23.351Z,957.70
2019-01-05T00:22:49.652Z,957.73
2019-01-05T00:25:15.956Z,957.86
2019-01-05T00:27:42.252Z,957.90
2019-01-05T00:30:08.601Z,957.84
2019-01-05T00:32:34.895Z,957.88
2019-01-05T00:35:01.168Z,957.91
2019-01-05T00:37:27.475Z,957.98
2019-01-05T00:39:53.774Z,957.92
2019-01-05T00:42:20.056Z,957.90
2019-01-05T00:44:46.350Z,957.90
2019-01-05T00:47:12.681Z,957.85
2019-01-05T00:49:38.933Z,957.85
2019-01-05T00:52:05.209Z,957.80
2019-01-05T00:54:31.530Z,957.79
2019-01-05T00:56:57.824Z,957.81
2019-01-05T00:59:24.120Z,957.74
2019-01-05T01:01:50.391Z,957.68
2019-01-05T01:04:16.668Z,957.58
2019-01-05T01:06:42.949Z,957.64
2019-01-05T01:09:09.279Z,957.51
2019-01-05T01:11:35.569Z,957.45
2019-01-05T01:14:01.864Z,957.41
2019-01-05T01:16:28.152Z,957.39
2019-01-05T01:18:54.444Z,957.32
2019-01-05T01:21:20.725Z,957.28
2019-01-05T01:23:47.039Z,957.29
2019-01-05T01:26:13.325Z,957.26
2019-01-05T01:28:39.620Z,957.22
2019-01-05T01:31:05.901Z,957.25
2019-01-05T01:33:32.219Z,957.17
2019-01-05T01:35:58.531Z,957.11
2019-01-05T01:38:24.850Z,957.04
2019-01-05T01:40:51.123Z,957.08
2019-01-05T01:43:17.419Z,957.05
2019-01-05T01:45:43.707Z,957.07
2019-01-05T01:48:10.016Z,957.06
2019-01-05T01:50:36.320Z,957.05
2019-01-05T01:53:02.592Z,957.04
2019-01-05T01:55:28.882Z,957.05
2019-01-05T01:57:55.175Z,957.03
2019-01-05T02:00:21.494Z,956.97
2019-01-05T02:02:47.777Z,956.98
2019-01-05T02:05:14.053Z,956.97
2019-01-05T02:07:40.390Z,956.94
2019-01-05T02:10:06.669Z,956.95
2019-01-05T02:12:32.957Z,956.93
2019-01-05T02:14:59.259Z,956.91
2019-01-05T02:17:25.555Z,956.92
2019-01-05T02:19:51.880Z,956.86
2019-01-05T02:22:18.152Z,956.76
2019-01-05T02:24:44.434Z,956.76
2019-01-05T02:27:10.784Z,956.64
2019-01-05T02:29:37.087Z,956.70
2019-01-05T02:32:03.385Z,956.67
2019-01-05T02:34:29.670Z,956.66
2019-01-05T02:36:55.978Z,956.68
2019-01-05T02:39:22.257Z,956.67
2019-01-05T02:41:48.558Z,956.69
2019-01-05T02:44:14.882Z,956.69
2019-01-05T02:46:41.176Z,956.66
2019-01-05T02:49:07.457Z,956.64
2019-01-05T02:51:33.801Z,956.63
2019-01-05T02:54:00.069Z,956.69
2019-01-05T02:56:26.374Z,956.74
2019-01-05T02:58:52.671Z,956.60
2019-01-05T03:01:18.988Z,956.60
2019-01-05T03:03:45.258Z,956.54
2019-01-05T03:06:11.568Z,956.55
2019-01-05T03:08:37.865Z,956.56
2019-01-05T03:11:04.198Z,956.61
2019-01-05T03:13:30.470Z,956.66
2019-01-05T03:15:56.781Z,956.59
2019-01-05T03:18:23.060Z,956.58
2019-01-05T03:20:49.346Z,956.48
2019-01-05T03:23:15.651Z,956.52
2019-01-05T03:25:41.946Z,956.48
2019-01-05T03:28:08.232Z,956.52
2019-01-05T03:30:34.539Z,956.50
2019-01-05T03:33:00.818Z,956.54
2019-01-05T03:35:27.106Z,956.51
2019-01-05T03:37:53.415Z,956.48
2019-01-05T03:40:19.710Z,956.49
2019-01-05T03:42:45.982Z,956.53
2019-01-05T03:45:12.273Z,956.55
2019-01-05T03:47:38.562Z,956.52
2019-01-05T03:50:04.885Z,956.51
2019-01-05T03:52:31.166Z,956.45
2019-01-05T03:54:57.447Z,956.49
2019-01-05T03:57:23.734Z,956.41
2019-01-05T03:59:50.020Z,956.45
2019-01-05T04:02:16.291Z,956.32
2019-01-05T04:04:42.571Z,956.39
2019-01-05T04:07:08.911Z,956.34
2019-01-05T04:09:35.194Z,956.30
2019-01-05T04:12:01.472Z,956.27
2019-01-05T04:14:27.773Z,956.28
2019-01-05T04:16:54.049Z,956.32
2019-01-05T04:19:20.375Z,956.26
2019-01-05T04:21:46.665Z,956.26
2019-01-05T04:24:12.959Z,956.31
2019-01-05T04:26:39.283Z,956.27
2019-01-05T04:29:05.592Z,956.22
2019-01-05T04:31:31.887Z,956.27
2019-01-05T04:33:58.218Z,956.26
2019-01-05T04:36:24.492Z,956.21
2019-01-05T04:38:50.790Z,956.18
2019-01-05T04:41:17.097Z,956.14
2019-01-05T04:43:43.384Z,956.14
2019-01-05T04:46:09.685Z,956.15
2019-01-05T04:48:35.959Z,956.17
2019-01-05T04:51:02.244Z,956.15
2019-01-05T04:53:28.578Z,956.15
2019-01-05T04:55:54.878Z,956.20
2019-01-05T04:58:21.213Z,956.11
2019-01-05T05:00:47.504Z,956.09
2019-01-05T05:03:13.776Z,956.04
2019-01-05T05:05:40.049Z,956.10
2019-01-05T05:08:06.359Z,956.04
2019-01-05T05:10:32.626Z,956.05
2019-01-05T05:12:58.932Z,956.04
2019-01-05T05:15:25.231Z,956.03
2019-01-05T05:17:51.545Z,956.08
2019-01-05T05:20:19.184Z,956.06
2019-01-05T05:22:44.124Z,956.01
2019-01-05T05:25:10.371Z,956.01
2019-01-05T05:27:36.650Z,956.01
2019-01-05T05:30:07.025Z,955.98
2019-01-05T05:32:33.334Z,955.93
2019-01-05T05:34:59.610Z,955.95
2019-01-05T05:37:25.924Z,955.90
2019-01-05T05:39:52.213Z,955.89
2019-01-05T05:42:18.486Z,955.92
2019-01-05T05:44:44.769Z,955.93
2019-01-05T05:47:11.079Z,955.94
2019-01-05T05:49:37.398Z,955.93
2019-01-05T05:52:03.688Z,956.00
2019-01-05T05:54:29.967Z,956.05
2019-01-05T05:56:56.242Z,956.02
2019-01-05T05:59:22.524Z,955.98
2019-01-05T06:01:48.856Z,956.07
2019-01-05T06:04:15.145Z,956.05
2019-01-05T06:06:41.451Z,956.02
2019-01-05T06:09:07.745Z,956.08
2019-01-05T06:11:34.008Z,956.08
2019-01-05T06:14:00.289Z,956.09
2019-01-05T06:16:26.594Z,956.07
2019-01-05T06:18:52.920Z,956.05
2019-01-05T06:21:19.205Z,956.11
2019-01-05T06:23:45.486Z,956.17
2019-01-05T06:26:11.762Z,956.18
2019-01-05T06:28:38.168Z,956.28
2019-01-05T06:31:04.509Z,956.30
2019-01-05T06:33:30.778Z,956.30
2019-01-05T06:35:57.227Z,956.35
2019-01-05T06:38:23.547Z,956.40
2019-01-05T06:40:49.834Z,956.37
2019-01-05T06:43:16.117Z,956.38
2019-01-05T06:45:42.390Z,956.42
2019-01-05T06:48:08.666Z,956.37
2019-01-05T06:50:34.974Z,956.32
2019-01-05T06:53:01.294Z,956.37
2019-01-05T06:55:27.600Z,956.38
2019-01-05T06:57:53.898Z,956.44
2019-01-05T07:00:20.177Z,956.45
2019-01-05T07:02:46.452Z,956.41
2019-01-05T07:05:12.759Z,956.42
2019-01-05T07:07:39.052Z,956.36
2019-01-05T07:10:05.342Z,956.36
2019-01-05T07:12:31.616Z,956.41
2019-01-05T07:14:57.889Z,956.44
2019-01-05T07:17:24.219Z,956.43
2019-01-05T07:19:50.500Z,956.45
2019-01-05T07:22:16.796Z,956.34
2019-01-05T07:24:43.095Z,956.38
2019-01-05T07:27:09.398Z,956.36
2019-01-05T07:29:35.696Z,956.36
2019-01-05T07:32:01.983Z,956.33
2019-01-05T07:34:28.291Z,956.40
2019-01-05T07:36:54.607Z,956.29
2019-01-05T07:39:20.940Z,956.30
2019-01-05T07:41:47.234Z,956.35
2019-01-05T07:44:13.531Z,956.38
2019-01-05T07:46:39.811Z,956.34
2019-01-05T07:49:06.091Z,956.27
2019-01-05T07:51:32.395Z,956.28
2019-01-05T07:53:58.720Z,956.27
2019-01-05T07:56:25.021Z,956.21
2019-01-05T07:58:51.330Z,956.12
2019-01-05T08:01:17.610Z,956.19
2019-01-05T08:03:43.909Z,956.09
2019-01-05T08:06:10.230Z,956.12
2019-01-05T08:08:36.497Z,956.18
2019-01-05T08:11:02.780Z,956.15
2019-01-05T08:13:29.097Z,956.10
2019-01-05T08:15:55.402Z,956.05
2019-01-05T08:18:21.709Z,956.03
2019-01-05T08:20:48.032Z,955.95
2019-01-05T08:23:14.343Z,955.95
2019-01-05T08:25:40.639Z,955.87
2019-01-05T08:28:06.946Z,955.89
2019-01-05T08:30:33.259Z,955.81
2019-01-05T08:32:59.551Z,955.76
2019-01-05T08:35:27.107Z,955.72
2019-01-05T08:37:52.160Z,955.60
2019-01-05T08:40:18.460Z,955.63
2019-01-05T08:42:44.755Z,955.62
2019-01-05T08:45:11.034Z,955.57
2019-01-05T08:47:37.338Z,955.54
2019-01-05T08:50:03.618Z,955.57
2019-01-05T08:52:29.903Z,955.46
2019-01-05T08:54:56.219Z,955.47
2019-01-05T08:57:22.518Z,955.40
2019-01-05T08:59:48.802Z,955.50
2019-01-05T09:02:15.191Z,955.44
2019-01-05T09:04:41.428Z,955.27
2019-01-05T09:07:08.214Z,955.28
2019-01-05T09:09:34.081Z,955.18
2019-01-05T09:12:13.600Z,955.09
2019-01-05T09:14:39.872Z,955.02
2019-01-05T09:17:06.180Z,955.01
2019-01-05T09:19:32.479Z,954.95
2019-01-05T09:21:58.775Z,954.92
2019-01-05T09:24:25.084Z,954.95
2019-01-05T09:26:51.352Z,954.88
2019-01-05T09:29:17.644Z,954.81
2019-01-05T09:31:43.939Z,954.77
2019-01-05T09:34:10.263Z,954.75
2019-01-05T09:36:36.544Z,954.64
2019-01-05T09:39:02.831Z,954.58
2019-01-05T09:41:29.108Z,954.67
2019-01-05T09:43:55.405Z,954.54
2019-01-05T09:46:21.679Z,954.54
2019-01-05T09:48:47.963Z,954.34
2019-01-05T09:51:14.286Z,954.33
2019-01-05T09:53:40.595Z,954.24
2019-01-05T09:56:06.869Z,954.21
2019-01-05T09:58:33.171Z,954.15
2019-01-05T10:00:59.486Z,954.03
2019-01-05T10:03:25.760Z,954.02
2019-01-05T10:05:52.131Z,953.97
2019-01-05T10:08:18.449Z,953.96
2019-01-05T10:10:44.731Z,953.95
2019-01-05T10:13:11.027Z,953.94
2019-01-05T10:15:37.328Z,953.93
2019-01-05T10:18:03.621Z,953.86
2019-01-05T10:20:29.912Z,953.83
2019-01-05T10:22:56.216Z,953.75
2019-01-05T10:25:22.623Z,953.68
2019-01-05T10:27:48.916Z,953.58
2019-01-05T10:30:15.256Z,953.60
2019-01-05T10:32:41.540Z,953.56
2019-01-05T10:35:17.096Z,953.52
2019-01-05T10:37:43.396Z,953.54
2019-01-05T10:40:09.720Z,953.52
2019-01-05T10:42:36.117Z,953.37
2019-01-05T10:45:02.417Z,953.27
2019-01-05T10:47:28.726Z,953.22
2019-01-05T10:49:55.035Z,953.25
2019-01-05T10:52:21.329Z,953.15
2019-01-05T10:54:47.635Z,953.13
2019-01-05T10:57:13.933Z,953.10
2019-01-05T10:59:40.215Z,953.13
2019-01-05T11:02:06.543Z,952.96
2019-01-05T11:04:32.885Z,952.98
2019-01-05T11:07:00.216Z,952.93
2019-01-05T11:09:25.483Z,952.91
2019-01-05T11:11:51.798Z,952.92
2019-01-05T11:14:18.230Z,952.86
2019-01-05T11:16:44.523Z,952.79
2019-01-05T11:19:10.839Z,952.72
2019-01-05T11:21:37.163Z,952.72
2019-01-05T11:24:03.431Z,952.68
2019-01-05T11:26:29.771Z,952.55
2019-01-05T11:28:56.044Z,952.50
2019-01-05T11:31:22.353Z,952.53
2019-01-05T11:33:48.619Z,952.46
2019-01-05T11:36:14.931Z,952.48
2019-01-05T11:38:41.248Z,952.48
2019-01-05T11:41:07.556Z,952.41
2019-01-05T11:43:33.848Z,952.48
2019-01-05T11:46:00.149Z,952.46
2019-01-05T11:48:26.462Z,952.39
2019-01-05T11:50:52.778Z,952.32
2019-01-05T11:53:19.064Z,952.32
2019-01-05T11:55:45.346Z,952.25
2019-01-05T11:58:11.638Z,952.23
2019-01-05T12:00:37.924Z,952.13
2019-01-05T12:03:04.209Z,952.15
2019-01-05T12:05:30.517Z,952.17
2019-01-05T12:07:56.829Z,952.03
2019-01-05T12:10:23.127Z,952.14
2019-01-05T12:12:49.426Z,951.96
2019-01-05T12:15:15.704Z,951.99
2019-01-05T12:17:41.991Z,951.95
2019-01-05T12:20:08.280Z,951.95
2019-01-05T12:22:34.553Z,951.95
2019-01-05T12:25:00.898Z,951.93
2019-01-05T12:27:27.198Z,951.95
2019-01-05T12:29:53.538Z,951.96
2019-01-05T12:32:19.826Z,951.85
2019-01-05T12:34:46.123Z,951.88
2019-01-05T12:37:12.447Z,951.86
2019-01-05T12:39:38.753Z,951.78
2019-01-05T12:42:05.029Z,951.77
2019-01-05T12:44:31.449Z,951.72
2019-01-05T12:46:57.695Z,951.68
2019-01-05T12:49:23.991Z,951.63
2019-01-05T12:51:50.323Z,951.68
2019-01-05T12:54:16.626Z,951.57
2019-01-05T12:56:42.905Z,951.59
2019-01-05T12:59:09.234Z,951.60
2019-01-05T13:01:35.597Z,951.50
2019-01-05T13:04:01.902Z,951.51
2019-01-05T13:06:28.202Z,951.49
2019-01-05T13:08:54.482Z,951.47
2019-01-05T13:11:20.787Z,951.51
2019-01-05T13:13:47.080Z,951.45
2019-01-05T13:16:13.356Z,951.42
2019-01-05T13:18:39.676Z,951.41
2019-01-05T13:21:05.950Z,951.40
2019-01-05T13:23:32.277Z,951.40
2019-01-05T13:25:58.563Z,951.35
2019-01-05T13:28:24.859Z,951.33
2019-01-05T13:30:51.222Z,951.36
2019-01-05T13:33:17.544Z,951.36
2019-01-05T13:35:43.826Z,951.29
2019-01-05T13:38:10.137Z,951.31
2019-01-05T13:40:36.426Z,951.30
2019-01-05T13:43:02.727Z,951.29
2019-01-05T13:45:29.007Z,951.33
2019-01-05T13:47:55.358Z,951.33
2019-01-05T13:50:21.657Z,951.34
2019-01-05T13:52:47.925Z,951.39
2019-01-05T13:55:14.259Z,951.37
2019-01-05T13:57:40.940Z,951.36
2019-01-05T14:00:06.875Z,951.38
2019-01-05T14:02:33.172Z,951.35
2019-01-05T14:04:59.459Z,951.35
2019-01-05T14:07:25.747Z,951.35
2019-01-05T14:09:52.067Z,951.39
2019-01-05T14:12:18.377Z,951.35
2019-01-05T14:14:44.661Z,951.37
2019-01-05T14:17:10.960Z,951.31
2019-01-05T14:19:37.329Z,951.32
2019-01-05T14:22:03.651Z,951.24
2019-01-05T14:24:29.960Z,951.21
2019-01-05T14:26:56.267Z,951.32
2019-01-05T14:29:22.558Z,951.35
2019-01-05T14:31:48.877Z,951.24
2019-01-05T14:34:15.149Z,951.26
2019-01-05T14:36:41.448Z,951.24
2019-01-05T14:39:07.793Z,951.16
2019-01-05T14:41:34.072Z,951.18
2019-01-05T14:44:00.349Z,951.18
2019-01-05T14:46:26.667Z,951.19
2019-01-05T14:48:53.015Z,951.21
2019-01-05T14:51:19.319Z,951.16
2019-01-05T14:53:45.630Z,951.23
2019-01-05T14:56:11.984Z,951.20
2019-01-05T14:58:38.268Z,951.23
2019-01-05T15:01:04.581Z,951.19
2019-01-05T15:03:30.875Z,951.19
2019-01-05T15:05:57.238Z,951.23
2019-01-05T15:08:23.452Z,951.30
2019-01-05T15:10:49.767Z,951.31
2019-01-05T15:13:16.109Z,951.31
2019-01-05T15:15:42.447Z,951.25
2019-01-05T15:18:08.742Z,951.28
2019-01-05T15:20:35.046Z,951.30
2019-01-05T15:23:01.349Z,951.36
2019-01-05T15:25:27.621Z,951.33
2019-01-05T15:27:53.897Z,951.27
2019-01-05T15:30:20.191Z,951.20
2019-01-05T15:32:46.474Z,951.27
2019-01-05T15:35:12.779Z,951.31
2019-01-05T15:37:39.078Z,951.26
2019-01-05T15:40:05.612Z,951.25
2019-01-05T15:42:32.349Z,951.27
2019-01-05T15:44:58.635Z,951.25
2019-01-05T15:47:24.928Z,951.26
2019-01-05T15:49:51.265Z,951.28
2019-01-05T15:52:17.546Z,951.32
2019-01-05T15:54:43.892Z,951.40
2019-01-05T15:57:10.240Z,951.34
2019-01-05T15:59:36.564Z,951.33
2019-01-05T16:02:02.869Z,951.40
2019-01-05T16:04:29.143Z,951.42
2019-01-05T16:06:55.454Z,951.45
2019-01-05T16:09:21.748Z,951.39
2019-01-05T16:11:48.016Z,951.46
2019-01-05T16:14:14.308Z,951.47
2019-01-05T16:16:40.587Z,951.43
2019-01-05T16:19:06.887Z,951.46
2019-01-05T16:21:33.175Z,951.40
2019-01-05T16:23:59.501Z,951.41
2019-01-05T16:26:26.306Z,951.44
2019-01-05T16:28:52.177Z,951.45
2019-01-05T16:31:18.480Z,951.49
2019-01-05T16:33:44.755Z,951.47
2019-01-05T16:36:11.061Z,951.42
2019-01-05T16:38:37.351Z,951.47
2019-01-05T16:41:06.445Z,951.47
2019-01-05T16:43:32.752Z,951.46
2019-01-05T16:45:59.035Z,951.59
2019-01-05T16:48:25.314Z,951.62
2019-01-05T16:50:51.617Z,951.58
2019-01-05T16:53:17.972Z,951.56
2019-01-05T16:55:44.172Z,951.64
2019-01-05T16:58:10.492Z,951.54
2019-01-05T17:00:36.843Z,951.55
2019-01-05T17:03:03.077Z,951.55
2019-01-05T17:05:29.392Z,951.49
2019-01-05T17:07:55.657Z,951.55
2019-01-05T17:10:21.946Z,951.55
2019-01-05T17:12:48.239Z,951.57
2019-01-05T17:15:14.532Z,951.64
2019-01-05T17:17:40.827Z,951.56
2019-01-05T17:20:07.108Z,951.59
2019-01-05T17:22:34.433Z,951.57
2019-01-05T17:24:59.695Z,951.58
2019-01-05T17:27:26.017Z,951.57
2019-01-05T17:29:52.329Z,951.56
2019-01-05T17:32:18.607Z,951.54
2019-01-05T17:34:44.906Z,951.53
2019-01-05T17:37:11.212Z,951.50
2019-01-05T17:39:37.486Z,951.51
2019-01-05T17:42:03.761Z,951.42
2019-01-05T17:44:30.067Z,951.43
2019-01-05T17:46:56.362Z,951.44
2019-01-05T17:49:22.644Z,951.47
2019-01-05T17:51:48.933Z,951.43
2019-01-05T17:54:15.205Z,951.38
2019-01-05T17:56:41.505Z,951.37
2019-01-05T17:59:07.780Z,951.37
2019-01-05T18:01:34.174Z,951.37
2019-01-05T18:04:00.485Z,951.33
2019-01-05T18:06:26.807Z,951.39
2019-01-05T18:08:53.076Z,951.37
2019-01-05T18:11:19.385Z,951.37
2019-01-05T18:13:46.622Z,951.35
2019-01-05T18:16:11.996Z,951.32
2019-01-05T18:18:38.263Z,951.33
2019-01-05T18:21:04.566Z,951.30
2019-01-05T18:23:30.961Z,951.27
2019-01-05T18:26:00.224Z,951.23
2019-01-05T18:28:26.494Z,951.24
2019-01-05T18:30:52.815Z,951.26
2019-01-05T18:33:19.152Z,951.28
2019-01-05T18:35:45.426Z,951.28
2019-01-05T18:38:11.715Z,951.24
2019-01-05T18:40:38.044Z,951.22
2019-01-05T18:43:04.492Z,951.25
2019-01-05T18:45:30.753Z,951.26
2019-01-05T18:47:58.143Z,951.24
2019-01-05T18:50:24.437Z,951.21
2019-01-05T18:52:50.723Z,951.25
2019-01-05T18:55:17.066Z,951.22
2019-01-05T18:57:43.321Z,951.28
2019-01-05T19:00:09.657Z,951.23
2019-01-05T19:02:35.980Z,951.25
2019-01-05T19:05:02.253Z,951.14
2019-01-05T19:07:28.528Z,951.20
2019-01-05T19:09:54.846Z,951.18
2019-01-05T19:12:21.151Z,951.12
2019-01-05T19:14:47.402Z,951.18
2019-01-05T19:17:13.705Z,951.17
2019-01-05T19:19:40.027Z,951.18
2019-01-05T19:22:06.300Z,951.15
2019-01-05T19:24:32.579Z,951.16
2019-01-05T19:26:58.860Z,951.12
2019-01-05T19:29:25.172Z,951.11
2019-01-05T19:31:51.488Z,951.15
2019-01-05T19:34:17.797Z,951.09
2019-01-05T19:36:44.106Z,951.07
2019-01-05T19:39:10.385Z,951.01
2019-01-05T19:41:36.669Z,950.97
2019-01-05T19:44:02.947Z,951.00
2019-01-05T19:46:29.236Z,950.96
2019-01-05T19:48:55.534Z,950.95
2019-01-05T19:51:21.854Z,951.00
2019-01-05T19:53:48.129Z,950.89
2019-01-05T19:56:14.422Z,950.94
2019-01-05T19:58:40.709Z,950.92
2019-01-05T20:01:07.127Z,950.95
2019-01-05T20:03:33.263Z,950.95
2019-01-05T20:05:59.539Z,951.00
2019-01-05T20:08:25.818Z,950.98
2019-01-05T20:10:52.107Z,951.00
2019-01-05T20:13:18.380Z,950.98
2019-01-05T20:15:44.699Z,950.88
2019-01-05T20:18:10.996Z,950.93
2019-01-05T20:20:37.306Z,950.88
2019-01-05T20:23:03.590Z,950.90
2019-01-05T20:25:29.904Z,950.87
2019-01-05T20:27:56.198Z,950.79
2019-01-05T20:30:22.492Z,950.73
2019-01-05T20:32:48.769Z,950.78
2019-01-05T20:35:15.045Z,950.70
2019-01-05T20:37:41.340Z,950.66
2019-01-05T20:40:07.648Z,950.64
2019-01-05T20:42:33.944Z,950.66
2019-01-05T20:45:00.255Z,950.56
2019-01-05T20:47:26.527Z,950.60
2019-01-05T20:49:52.925Z,950.54
2019-01-05T20:52:20.122Z,950.44
2019-01-05T20:54:46.425Z,950.37
2019-01-05T20:57:12.788Z,950.38
2019-01-05T20:59:39.099Z,950.27
2019-01-05T21:02:05.524Z,950.31
2019-01-05T21:04:31.812Z,950.38
2019-01-05T21:06:58.111Z,950.37
2019-01-05T21:09:24.468Z,950.29
2019-01-05T21:11:50.775Z,950.24
2019-01-05T21:14:17.053Z,950.18
2019-01-05T21:16:43.668Z,950.22
2019-01-05T21:19:09.976Z,950.15
2019-01-05T21:21:36.284Z,950.13
2019-01-05T21:24:02.605Z,950.16
2019-01-05T21:26:28.887Z,950.09
2019-01-05T21:28:55.183Z,950.06
2019-01-05T21:31:21.466Z,950.02
2019-01-05T21:33:47.791Z,950.10
2019-01-05T21:36:14.089Z,950.06
2019-01-05T21:38:40.360Z,950.02
2019-01-05T21:41:06.645Z,950.02
2019-01-05T21:43:32.950Z,949.98
2019-01-05T21:45:59.228Z,949.98
2019-01-05T21:48:25.508Z,949.94
2019-01-05T21:50:51.823Z,949.92
2019-01-05T21:53:18.125Z,949.93
2019-01-05T21:55:44.400Z,949.82
2019-01-05T21:58:10.686Z,949.83
2019-01-05T22:00:36.963Z,949.78
2019-01-05T22:03:03.258Z,949.78
2019-01-05T22:05:29.532Z,949.82
2019-01-05T22:07:55.838Z,949.72
2019-01-05T22:10:22.263Z,949.73
2019-01-05T22:12:48.578Z,949.75
2019-01-05T22:15:15.375Z,949.66
2019-01-05T22:17:41.562Z,949.62
2019-01-05T22:20:07.843Z,949.58
2019-01-05T22:22:36.038Z,949.48
2019-01-05T22:25:00.662Z,949.45
2019-01-05T22:27:27.016Z,949.43
2019-01-05T22:29:53.292Z,949.33
2019-01-05T22:32:19.567Z,949.35
2019-01-05T22:34:45.847Z,949.39
2019-01-05T22:37:12.139Z,949.29
2019-01-05T22:39:38.454Z,949.32
2019-01-05T22:42:04.749Z,949.31
2019-01-05T22:44:31.031Z,949.30
2019-01-05T22:46:57.321Z,949.30
2019-01-05T22:49:23.616Z,949.34
2019-01-05T22:51:49.901Z,949.25
2019-01-05T22:54:16.197Z,949.26
2019-01-05T22:56:42.489Z,949.24
2019-01-05T22:59:08.913Z,949.29
2019-01-05T23:01:35.150Z,949.20
2019-01-05T23:04:01.557Z,949.22
2019-01-05T23:06:27.775Z,949.15
2019-01-05T23:08:54.065Z,949.18
2019-01-05T23:11:20.349Z,949.11
2019-01-05T23:13:46.683Z,949.16
2019-01-05T23:16:13.088Z,949.11
2019-01-05T23:18:39.408Z,949.01
2019-01-05T23:21:05.694Z,949.05
2019-01-05T23:23:31.988Z,949.03
2019-01-05T23:25:58.291Z,949.06
2019-01-05T23:28:24.574Z,949.05
2019-01-05T23:30:51.328Z,949.06
2019-01-05T23:33:17.629Z,949.06
2019-01-05T23:35:43.902Z,949.03
2019-01-05T23:38:10.271Z,948.99
2019-01-05T23:40:36.517Z,948.95
2019-01-05T23:43:02.822Z,948.97
2019-01-05T23:45:29.109Z,948.92
2019-01-05T23:47:55.371Z,948.95
2019-01-05T23:50:21.667Z,949.00
2019-01-05T23:52:47.946Z,948.92
2019-01-05T23:55:14.351Z,948.86
2019-01-05T23:57:40.624Z,948.89
